Time;durP1;ratioP1;P1;durP2;ratioP2;P2;SDS_P1;SDS_P2;PMS_P1;PMS_P2;Temp;Humidity;BMP_temperature;BMP_pressure;BME280_temperature;BME280_humidity;BME280_pressure;Samples;Min_cycle;Max_cycle;Signal;HPM_P1;HPM_P2
2023/08/17 00:00:53;;;;;;;4.35;1.50;;;20.10;98.80;;;;;;5054048;28;20091;-60
2023/08/17 00:03:18;;;;;;;1.10;0.90;;;20.10;98.90;;;;;;5056142;28;20021;-60
2023/08/17 00:05:44;;;;;;;3.15;1.27;;;20.10;98.90;;;;;;5055117;28;20052;-60
2023/08/17 00:08:09;;;;;;;8.15;1.50;;;20.10;99.00;;;;;;5046239;28;20056;-60
2023/08/17 00:10:35;;;;;;;3.95;1.30;;;20.10;99.30;;;;;;5043381;28;20021;-60
2023/08/17 00:13:02;;;;;;;4.60;1.38;;;20.10;99.40;;;;;;5043663;28;20024;-60
2023/08/17 00:15:27;;;;;;;5.20;1.33;;;20.10;99.60;;;;;;5037702;28;20029;-60
2023/08/17 00:17:53;;;;;;;2.78;1.08;;;20.00;99.60;;;;;;5036842;28;20036;-60
2023/08/17 00:20:18;;;;;;;4.35;1.45;;;20.00;99.90;;;;;;5039876;28;20113;-60
2023/08/17 00:22:44;;;;;;;2.00;1.17;;;20.00;99.90;;;;;;5045289;28;20116;-60
2023/08/17 00:25:10;;;;;;;4.45;1.08;;;20.00;99.90;;;;;;5041106;28;20029;-60
2023/08/17 00:27:35;;;;;;;4.55;1.00;;;20.00;99.90;;;;;;5034263;28;20018;-60
2023/08/17 00:30:01;;;;;;;2.95;1.38;;;19.90;99.90;;;;;;5042080;28;20816;-60
2023/08/17 00:32:26;;;;;;;1.85;1.50;;;19.90;99.90;;;;;;5044749;28;20053;-60
2023/08/17 00:34:52;;;;;;;2.40;1.33;;;19.90;99.90;;;;;;5046507;28;20029;-60
2023/08/17 00:37:18;;;;;;;6.18;1.20;;;19.90;99.90;;;;;;5047129;28;20113;-60
2023/08/17 00:39:43;;;;;;;2.50;1.33;;;20.00;99.90;;;;;;5038743;28;20108;-60
2023/08/17 00:42:09;;;;;;;3.65;1.73;;;19.90;99.90;;;;;;5040818;28;20025;-60
2023/08/17 00:44:35;;;;;;;3.13;1.48;;;19.90;99.90;;;;;;5051689;28;20037;-60
2023/08/17 00:47:01;;;;;;;4.63;1.77;;;19.90;99.90;;;;;;5036892;28;20081;-60
2023/08/17 00:49:27;;;;;;;2.65;1.27;;;19.80;99.90;;;;;;5035603;28;20037;-60
2023/08/17 00:51:52;;;;;;;4.45;1.70;;;19.80;99.90;;;;;;5051632;28;20020;-60
2023/08/17 00:54:24;;;;;;;3.88;1.75;;;19.80;99.90;;;;;;5042802;28;20369;-60
2023/08/17 00:56:49;;;;;;;2.40;1.40;;;19.80;99.90;;;;;;5037139;28;20013;-60
2023/08/17 00:59:15;;;;;;;2.38;1.15;;;19.80;99.90;;;;;;5044907;28;20442;-60
2023/08/17 01:01:41;;;;;;;1.70;1.58;;;19.80;99.90;;;;;;5051817;28;20023;-60
2023/08/17 01:04:06;;;;;;;5.45;1.60;;;19.70;99.90;;;;;;5047239;28;20510;-59
2023/08/17 01:06:32;;;;;;;2.53;1.65;;;19.80;99.90;;;;;;5045889;28;20078;-60
2023/08/17 01:08:58;;;;;;;5.95;1.60;;;19.70;99.90;;;;;;5047426;28;20510;-60
2023/08/17 01:11:34;;;;;;;2.33;1.55;;;19.70;99.90;;;;;;5039742;28;20067;-60
2023/08/17 01:14:03;;;;;;;;;;;19.60;99.90;;;;;;5045975;28;20112;-61
2023/08/17 01:16:42;;;;;;;6.55;1.90;;;19.50;99.90;;;;;;5047408;28;20314;-61
2023/08/17 01:19:09;;;;;;;5.00;2.17;;;19.40;99.90;;;;;;5049157;28;20442;-61
2023/08/17 01:21:43;;;;;;;6.85;2.17;;;19.30;99.90;;;;;;5045110;28;20029;-61
2023/08/17 01:24:11;;;;;;;3.85;2.03;;;19.20;99.90;;;;;;5046913;28;20025;-62
2023/08/17 01:26:36;;;;;;;5.40;2.03;;;19.10;99.90;;;;;;5043465;28;20392;-62
2023/08/17 01:29:02;;;;;;;6.13;2.70;;;19.00;99.90;;;;;;5047858;28;20036;-62
2023/08/17 01:31:34;;;;;;;10.45;2.83;;;18.80;99.90;;;;;;5047481;28;20024;-62
2023/08/17 01:34:09;;;;;;;4.28;2.53;;;18.70;99.90;;;;;;5031284;28;20021;-62
2023/08/17 01:36:45;;;;;;;3.97;2.50;;;18.80;99.90;;;;;;5046451;28;20021;-62
2023/08/17 01:39:11;;;;;;;5.70;2.60;;;18.90;99.90;;;;;;5046142;28;20048;-62
2023/08/17 01:41:38;;;;;;;5.47;2.20;;;19.10;99.90;;;;;;5045137;28;20071;-62
2023/08/17 01:44:04;;;;;;;4.18;2.00;;;19.20;99.90;;;;;;5044889;28;20051;-62
2023/08/17 01:46:34;;;;;;;4.50;2.42;;;19.40;99.90;;;;;;5049553;28;20028;-62
2023/08/17 01:49:00;;;;;;;9.05;3.22;;;19.40;99.90;;;;;;5037288;28;20059;-62
2023/08/17 01:51:26;;;;;;;6.43;2.90;;;19.40;99.90;;;;;;5039485;28;20061;-62
2023/08/17 01:53:52;;;;;;;6.90;3.78;;;19.40;99.90;;;;;;5042160;28;20021;-62
2023/08/17 01:56:17;;;;;;;5.93;2.95;;;19.40;99.90;;;;;;5046717;28;20400;-62
2023/08/17 01:58:43;;;;;;;6.35;2.78;;;19.30;99.90;;;;;;5043044;28;20496;-62
2023/08/17 02:01:09;;;;;;;12.05;4.45;;;19.10;99.90;;;;;;5036691;28;20109;-63
2023/08/17 02:03:35;;;;;;;6.20;3.85;;;18.90;99.90;;;;;;5045552;28;20029;-62
2023/08/17 02:06:00;;;;;;;10.32;3.50;;;18.70;99.90;;;;;;5039319;28;20029;-61
2023/08/17 02:08:26;;;;;;;6.15;3.85;;;18.50;99.90;;;;;;5043200;28;20040;-61
2023/08/17 02:10:52;;;;;;;6.93;3.65;;;18.40;99.90;;;;;;5048793;28;20269;-62
2023/08/17 02:13:18;;;;;;;5.72;2.85;;;18.40;99.90;;;;;;5050247;28;20060;-62
2023/08/17 02:15:44;;;;;;;4.35;2.97;;;18.40;99.90;;;;;;5048280;28;20025;-62
2023/08/17 02:18:10;;;;;;;5.07;2.97;;;18.40;99.90;;;;;;5052458;28;20066;-62
2023/08/17 02:20:35;;;;;;;8.95;3.78;;;18.20;99.90;;;;;;5056705;28;20021;-62
2023/08/17 02:23:01;;;;;;;5.93;3.13;;;18.20;99.90;;;;;;5042887;28;20074;-60
2023/08/17 02:25:33;;;;;;;3.67;3.17;;;18.20;99.90;;;;;;5045630;28;20021;-62
2023/08/17 02:27:59;;;;;;;3.28;2.40;;;18.10;99.90;;;;;;5045413;28;20025;-62
2023/08/17 02:30:25;;;;;;;4.72;3.10;;;18.00;99.90;;;;;;5043354;28;20492;-62
2023/08/17 02:32:51;;;;;;;6.40;2.80;;;18.10;99.90;;;;;;5047303;28;20036;-62
2023/08/17 02:35:16;;;;;;;3.63;2.65;;;18.00;99.90;;;;;;5043304;28;20039;-61
2023/08/17 02:37:42;;;;;;;7.47;3.13;;;18.10;99.90;;;;;;5041968;28;20025;-61
2023/08/17 02:40:08;;;;;;;4.47;3.17;;;18.10;99.90;;;;;;5047032;28;20044;-61
2023/08/17 02:42:33;;;;;;;5.82;2.30;;;18.10;99.90;;;;;;5033714;28;20037;-62
2023/08/17 02:44:59;;;;;;;3.05;2.65;;;18.10;99.90;;;;;;5044634;28;20072;-61
2023/08/17 02:47:24;;;;;;;4.72;2.60;;;18.10;99.90;;;;;;5048429;28;20028;-60
2023/08/17 02:49:50;;;;;;;3.50;2.50;;;18.20;99.90;;;;;;5048829;28;20017;-62
2023/08/17 02:52:16;;;;;;;3.05;2.50;;;18.20;99.90;;;;;;5037636;28;20020;-61
2023/08/17 02:54:41;;;;;;;5.43;2.95;;;18.30;99.90;;;;;;5048799;28;20025;-61
2023/08/17 02:57:07;;;;;;;3.72;2.10;;;18.30;99.90;;;;;;5045526;28;20042;-62
2023/08/17 02:59:32;;;;;;;4.55;2.08;;;18.30;99.90;;;;;;5050883;28;20031;-62
2023/08/17 03:01:58;;;;;;;3.83;2.80;;;18.30;99.90;;;;;;5045755;28;20025;-61
2023/08/17 03:04:24;;;;;;;3.78;2.03;;;18.20;99.90;;;;;;5038092;28;20086;-62
2023/08/17 03:06:49;;;;;;;8.60;2.60;;;18.20;99.90;;;;;;5048648;28;20021;-62
2023/08/17 03:09:15;;;;;;;2.75;1.95;;;18.30;99.90;;;;;;5046741;28;20383;-62
2023/08/17 03:11:40;;;;;;;5.63;2.40;;;18.30;99.90;;;;;;5041009;28;20025;-63
2023/08/17 03:14:06;;;;;;;4.75;2.40;;;18.20;99.90;;;;;;5043853;28;20032;-63
2023/08/17 03:16:32;;;;;;;3.38;2.47;;;18.20;99.90;;;;;;5038481;28;20037;-62
2023/08/17 03:18:57;;;;;;;3.75;2.45;;;18.20;99.90;;;;;;5038047;28;20031;-62
2023/08/17 03:21:23;;;;;;;2.92;2.30;;;18.20;99.90;;;;;;5046219;28;20044;-62
2023/08/17 03:23:49;;;;;;;2.50;2.30;;;18.20;99.90;;;;;;5022925;28;20037;-63
2023/08/17 03:26:15;;;;;;;2.03;1.83;;;18.20;99.90;;;;;;5046224;28;20247;-62
2023/08/17 03:28:41;;;;;;;2.53;2.33;;;18.20;99.90;;;;;;5048006;28;20090;-62
2023/08/17 03:31:10;;;;;;;2.40;2.20;;;18.20;99.90;;;;;;5035579;28;20060;-62
2023/08/17 03:33:36;;;;;;;3.78;2.65;;;18.20;99.90;;;;;;5045316;28;20021;-62
2023/08/17 03:36:02;;;;;;;4.38;2.83;;;18.20;99.90;;;;;;5046927;28;20116;-62
2023/08/17 03:38:28;;;;;;;3.47;2.97;;;18.20;99.90;;;;;;5046339;28;20031;-61
2023/08/17 03:40:54;;;;;;;2.83;2.63;;;18.10;99.90;;;;;;5044573;28;20280;-62
2023/08/17 03:43:20;;;;;;;4.60;2.83;;;18.20;99.90;;;;;;5047347;28;20407;-62
2023/08/17 03:45:45;;;;;;;3.60;2.85;;;18.20;99.90;;;;;;5044918;28;20040;-61
2023/08/17 03:48:11;;;;;;;4.55;2.88;;;18.10;99.90;;;;;;5038743;28;20029;-61
2023/08/17 03:50:37;;;;;;;3.50;2.83;;;18.10;99.90;;;;;;5044766;28;20040;-62
2023/08/17 03:53:03;;;;;;;7.95;3.35;;;18.10;99.90;;;;;;5047561;28;20037;-62
2023/08/17 03:55:28;;;;;;;3.13;2.80;;;18.10;99.90;;;;;;5039949;28;20384;-61
2023/08/17 03:57:54;;;;;;;3.13;2.80;;;18.10;99.90;;;;;;5041436;28;20064;-62
2023/08/17 04:00:19;;;;;;;3.80;2.70;;;18.10;99.90;;;;;;5044768;28;20067;-61
2023/08/17 04:02:45;;;;;;;4.78;2.78;;;18.10;99.90;;;;;;5045799;28;20025;-61
2023/08/17 04:05:10;;;;;;;2.65;2.45;;;18.10;99.90;;;;;;5043946;28;20029;-61
2023/08/17 04:07:36;;;;;;;4.60;2.28;;;18.10;99.90;;;;;;5046127;28;20028;-61
2023/08/17 04:10:03;;;;;;;3.08;2.78;;;18.10;99.90;;;;;;5044076;28;20032;-61
2023/08/17 04:12:28;;;;;;;3.42;2.13;;;18.10;99.90;;;;;;5038653;28;20075;-61
2023/08/17 04:14:54;;;;;;;4.10;2.70;;;18.10;99.90;;;;;;5052055;28;20124;-62
2023/08/17 04:17:20;;;;;;;3.58;2.30;;;18.20;99.90;;;;;;5043648;28;20017;-62
2023/08/17 04:19:46;;;;;;;2.75;2.50;;;18.10;99.90;;;;;;5043354;28;20474;-61
2023/08/17 04:22:12;;;;;;;3.28;3.03;;;18.10;99.90;;;;;;5046935;28;20070;-62
2023/08/17 04:24:37;;;;;;;2.30;2.10;;;18.10;99.90;;;;;;5037360;28;20559;-61
2023/08/17 04:27:03;;;;;;;2.80;2.40;;;18.20;99.90;;;;;;5030854;28;21275;-61
2023/08/17 04:29:30;;;;;;;2.85;2.65;;;18.20;99.90;;;;;;5035094;28;20025;-61
2023/08/17 04:31:56;;;;;;;4.07;2.67;;;18.30;99.90;;;;;;5030957;28;20029;-61
2023/08/17 04:34:21;;;;;;;3.17;2.85;;;18.30;99.90;;;;;;5032473;28;20036;-61
2023/08/17 04:36:47;;;;;;;2.92;2.67;;;18.30;99.90;;;;;;5031610;28;20033;-61
2023/08/17 04:39:12;;;;;;;3.50;2.47;;;18.30;99.90;;;;;;5037693;28;20547;-61
2023/08/17 04:41:38;;;;;;;4.18;2.65;;;18.30;99.90;;;;;;5036818;28;20021;-61
2023/08/17 04:44:04;;;;;;;2.60;2.40;;;18.30;99.90;;;;;;5034449;28;20862;-62
2023/08/17 04:46:30;;;;;;;5.28;2.65;;;18.40;99.90;;;;;;5036559;28;20035;-61
2023/08/17 04:48:55;;;;;;;4.00;2.85;;;18.40;99.90;;;;;;5044476;28;20108;-62
2023/08/17 04:51:21;;;;;;;3.28;2.80;;;18.40;99.90;;;;;;5046929;28;20039;-62
2023/08/17 04:53:47;;;;;;;3.63;2.97;;;18.40;99.90;;;;;;5049754;28;20392;-62
2023/08/17 04:56:12;;;;;;;3.08;2.83;;;18.40;99.90;;;;;;5047613;28;20037;-62
2023/08/17 04:58:38;;;;;;;2.72;2.38;;;18.40;99.90;;;;;;5043827;28;20029;-61
2023/08/17 05:01:03;;;;;;;3.78;3.47;;;18.40;99.90;;;;;;5038829;28;20029;-62
2023/08/17 05:03:29;;;;;;;3.35;3.15;;;18.40;99.90;;;;;;5044440;28;20047;-62
2023/08/17 05:05:54;;;;;;;5.38;3.67;;;18.40;99.90;;;;;;5044548;28;20028;-62
2023/08/17 05:08:22;;;;;;;4.32;3.55;;;18.50;99.90;;;;;;5045886;28;20260;-62
2023/08/17 05:10:47;;;;;;;4.07;3.78;;;18.40;99.90;;;;;;5043458;28;20025;-62
2023/08/17 05:13:13;;;;;;;3.90;2.75;;;18.40;99.90;;;;;;5047121;28;20785;-63
2023/08/17 05:15:38;;;;;;;4.03;3.08;;;18.40;99.90;;;;;;5044871;28;20460;-62
2023/08/17 05:18:05;;;;;;;2.92;2.72;;;18.40;99.90;;;;;;5043183;28;20032;-61
2023/08/17 05:20:30;;;;;;;3.72;3.15;;;18.40;99.90;;;;;;5037375;28;20025;-62
2023/08/17 05:22:56;;;;;;;3.75;3.45;;;18.40;99.90;;;;;;5067439;23;20036;-63
2023/08/17 05:25:22;;;;;;;5.28;3.53;;;18.40;99.90;;;;;;5060746;28;20056;-62
2023/08/17 05:27:48;;;;;;;2.88;2.65;;;18.40;99.90;;;;;;5049129;28;20035;-61
2023/08/17 05:30:14;;;;;;;3.35;3.05;;;18.30;99.90;;;;;;5043120;28;20029;-62
2023/08/17 05:32:40;;;;;;;3.63;3.33;;;18.30;99.90;;;;;;5044402;28;20051;-62
2023/08/17 05:35:06;;;;;;;3.15;2.85;;;18.20;99.90;;;;;;5045594;28;20060;-61
2023/08/17 05:37:31;;;;;;;4.57;3.25;;;18.20;99.90;;;;;;5083594;22;20068;-74
2023/08/17 05:39:57;;;;;;;3.00;2.80;;;18.20;99.90;;;;;;5082134;28;20030;-74
2023/08/17 05:42:22;;;;;;;5.13;3.08;;;18.20;99.90;;;;;;5072847;28;20024;-74
2023/08/17 05:44:48;;;;;;;4.15;3.75;;;18.20;99.90;;;;;;5072664;28;20471;-74
2023/08/17 05:47:15;;;;;;;4.38;2.80;;;18.20;99.90;;;;;;5063599;28;20040;-73
2023/08/17 05:49:41;;;;;;;3.25;2.67;;;18.20;99.90;;;;;;5067338;28;20024;-73
2023/08/17 05:52:06;;;;;;;5.22;3.42;;;18.20;99.90;;;;;;5072559;28;20044;-74
2023/08/17 05:54:32;;;;;;;5.28;3.05;;;18.20;99.90;;;;;;5073199;28;20047;-73
2023/08/17 05:56:57;;;;;;;3.35;2.97;;;18.10;99.90;;;;;;5069961;28;20498;-73
2023/08/17 05:59:23;;;;;;;4.20;3.33;;;18.10;99.90;;;;;;5070919;28;20032;-73
2023/08/17 06:01:48;;;;;;;3.03;2.78;;;18.10;99.90;;;;;;5071513;28;20025;-73
2023/08/17 06:04:14;;;;;;;3.10;2.80;;;18.10;99.90;;;;;;5069212;28;20021;-73
2023/08/17 06:06:40;;;;;;;5.47;3.97;;;18.10;99.90;;;;;;5070303;28;20491;-74
2023/08/17 06:09:07;;;;;;;5.47;3.75;;;18.10;99.90;;;;;;5080098;28;20049;-73
2023/08/17 06:11:33;;;;;;;3.58;3.25;;;18.00;99.90;;;;;;5077225;28;20025;-73
2023/08/17 06:13:58;;;;;;;3.00;2.80;;;18.00;99.90;;;;;;5068750;28;20021;-75
2023/08/17 06:16:24;;;;;;;4.45;3.08;;;18.00;99.90;;;;;;5064917;28;20066;-76
2023/08/17 06:18:50;;;;;;;4.20;2.55;;;17.90;99.90;;;;;;5063440;28;20017;-76
2023/08/17 06:21:15;;;;;;;3.58;3.10;;;17.90;99.90;;;;;;5067868;28;20039;-75
2023/08/17 06:23:41;;;;;;;6.32;3.03;;;17.90;99.90;;;;;;5066167;28;20032;-75
2023/08/17 06:26:07;;;;;;;3.63;2.33;;;17.90;99.90;;;;;;5062495;28;20040;-75
2023/08/17 06:28:33;;;;;;;2.55;2.20;;;17.90;99.90;;;;;;5052755;28;20292;-75
2023/08/17 06:30:59;;;;;;;3.00;2.80;;;17.90;99.90;;;;;;5069511;28;20572;-75
2023/08/17 06:33:24;;;;;;;3.55;3.25;;;17.90;99.90;;;;;;5068031;28;20025;-75
2023/08/17 06:35:50;;;;;;;3.30;2.00;;;17.90;99.90;;;;;;5066304;28;20024;-76
2023/08/17 06:38:15;;;;;;;2.83;2.58;;;17.90;99.90;;;;;;5071287;28;20024;-75
2023/08/17 06:40:41;;;;;;;3.28;2.97;;;17.80;99.90;;;;;;5067710;28;20402;-75
2023/08/17 06:43:06;;;;;;;2.42;1.67;;;17.90;99.90;;;;;;5071655;28;20035;-75
2023/08/17 06:45:32;;;;;;;12.90;2.45;;;17.90;99.90;;;;;;5071111;28;20513;-75
2023/08/17 06:47:58;;;;;;;4.90;2.45;;;17.90;99.90;;;;;;5069064;28;20028;-75
2023/08/17 06:50:25;;;;;;;2.53;2.33;;;17.90;99.90;;;;;;5071268;28;20537;-75
2023/08/17 06:52:50;;;;;;;1.65;1.55;;;17.90;99.90;;;;;;5073378;28;20104;-74
2023/08/17 06:55:16;;;;;;;2.25;1.35;;;17.90;99.90;;;;;;5070994;28;20566;-75
2023/08/17 06:57:42;;;;;;;4.30;3.22;;;17.90;99.90;;;;;;5075992;28;20390;-74
2023/08/17 07:00:10;;;;;;;3.55;2.30;;;17.90;99.90;;;;;;5070767;28;20025;-75
2023/08/17 07:02:36;;;;;;;2.58;2.38;;;17.90;99.90;;;;;;5066068;28;20016;-76
2023/08/17 07:05:03;;;;;;;3.25;2.38;;;17.90;99.90;;;;;;5066543;28;20050;-76
2023/08/17 07:07:30;;;;;;;2.85;2.53;;;17.90;99.90;;;;;;5071314;28;20033;-75
2023/08/17 07:09:55;;;;;;;3.55;2.35;;;17.90;99.90;;;;;;5071403;28;20052;-76
2023/08/17 07:12:21;;;;;;;4.72;2.80;;;17.90;99.90;;;;;;5052215;28;20029;-75
2023/08/17 07:14:46;;;;;;;2.30;2.10;;;18.00;99.90;;;;;;5077645;28;20479;-76
2023/08/17 07:17:12;;;;;;;3.17;2.72;;;18.00;99.90;;;;;;5064197;28;20040;-76
2023/08/17 07:19:37;;;;;;;2.83;2.25;;;18.00;99.90;;;;;;5072035;28;20404;-77
2023/08/17 07:22:03;;;;;;;3.67;2.85;;;18.00;99.90;;;;;;5066519;28;20044;-75
2023/08/17 07:24:28;;;;;;;5.40;2.35;;;18.00;99.90;;;;;;5072455;28;20024;-75
2023/08/17 07:26:54;;;;;;;4.07;2.22;;;18.10;99.90;;;;;;5070617;28;20024;-76
2023/08/17 07:29:19;;;;;;;4.85;2.88;;;18.00;99.90;;;;;;5071337;28;20020;-76
2023/08/17 07:31:45;;;;;;;2.78;2.58;;;18.00;99.90;;;;;;5075644;28;20032;-77
2023/08/17 07:34:10;;;;;;;3.55;2.78;;;18.10;99.90;;;;;;5067906;28;20021;-77
2023/08/17 07:36:36;;;;;;;3.47;3.17;;;18.10;99.90;;;;;;5069678;28;20105;-77
2023/08/17 07:39:02;;;;;;;3.78;3.47;;;18.20;99.90;;;;;;5070307;28;20552;-75
2023/08/17 07:41:27;;;;;;;8.05;3.40;;;18.30;99.90;;;;;;5069787;28;20024;-76
2023/08/17 07:43:53;;;;;;;4.50;3.13;;;18.30;99.90;;;;;;5071205;28;20509;-70
2023/08/17 07:46:18;;;;;;;2.30;2.08;;;18.30;99.90;;;;;;5066906;28;20032;-70
2023/08/17 07:48:44;;;;;;;2.75;2.53;;;18.30;99.90;;;;;;5070355;28;20020;-70
2023/08/17 07:51:09;;;;;;;4.10;3.22;;;18.20;99.90;;;;;;5073208;28;20023;-70
2023/08/17 07:53:35;;;;;;;3.08;2.88;;;18.20;99.90;;;;;;5068441;28;20023;-70
2023/08/17 07:56:00;;;;;;;3.42;3.20;;;18.20;99.90;;;;;;5068626;28;20036;-71
2023/08/17 07:58:26;;;;;;;4.97;3.38;;;18.20;99.90;;;;;;5069230;28;20081;-70
2023/08/17 08:00:51;;;;;;;2.72;2.33;;;18.20;99.90;;;;;;5069510;28;20069;-70
2023/08/17 08:03:17;;;;;;;5.45;2.75;;;18.20;99.90;;;;;;5062189;28;20058;-71
2023/08/17 08:05:42;;;;;;;3.55;3.25;;;18.10;99.90;;;;;;5074145;28;20025;-70
2023/08/17 08:08:08;;;;;;;4.43;4.03;;;18.20;99.90;;;;;;5068771;28;20096;-70
2023/08/17 08:10:33;;;;;;;5.10;3.22;;;18.20;99.90;;;;;;5067020;28;20103;-70
2023/08/17 08:12:59;;;;;;;3.30;3.00;;;18.20;99.90;;;;;;5065818;28;20013;-70
2023/08/17 08:15:24;;;;;;;4.03;3.72;;;18.20;99.90;;;;;;5067533;28;20032;-70
2023/08/17 08:17:50;;;;;;;5.43;4.60;;;18.20;99.90;;;;;;5070124;28;20024;-69
2023/08/17 08:20:16;;;;;;;5.03;4.50;;;18.30;99.90;;;;;;5070084;28;20036;-69
2023/08/17 08:22:41;;;;;;;4.63;3.92;;;18.30;99.90;;;;;;5072532;28;20082;-70
2023/08/17 08:25:07;;;;;;;4.30;3.90;;;18.30;99.90;;;;;;5066808;28;20031;-70
2023/08/17 08:27:32;;;;;;;5.80;5.00;;;18.30;99.90;;;;;;5065864;28;20041;-70
2023/08/17 08:29:58;;;;;;;7.45;5.10;;;18.40;99.90;;;;;;5067438;28;20025;-70
2023/08/17 08:32:23;;;;;;;4.63;4.13;;;18.40;99.90;;;;;;5069366;28;20032;-70
2023/08/17 08:34:49;;;;;;;5.22;4.72;;;18.50;99.90;;;;;;5079657;28;20111;-70
2023/08/17 08:37:15;;;;;;;4.47;4.15;;;18.50;99.90;;;;;;5073652;28;20291;-70
2023/08/17 08:39:51;;;;;;;4.85;3.65;;;18.50;99.90;;;;;;5067478;28;20020;-70
2023/08/17 08:42:18;;;;;;;4.78;4.38;;;18.50;99.90;;;;;;5068480;28;20032;-70
2023/08/17 08:44:44;;;;;;;5.57;4.90;;;18.50;99.90;;;;;;5066053;28;20119;-70
2023/08/17 08:47:11;;;;;;;5.78;4.43;;;18.50;99.90;;;;;;5061045;28;20104;-70
2023/08/17 08:49:39;;;;;;;5.13;3.17;;;18.50;99.90;;;;;;5061899;28;20078;-70
2023/08/17 08:52:07;;;;;;;4.75;3.35;;;18.60;99.90;;;;;;5071842;28;20051;-70
2023/08/17 08:54:35;;;;;;;6.68;3.15;;;18.60;99.90;;;;;;5060190;28;20033;-70
2023/08/17 08:57:08;;;;;;;7.80;4.43;;;18.60;99.90;;;;;;5065419;28;20186;-70
2023/08/17 08:59:35;;;;;;;2.72;2.53;;;18.60;99.90;;;;;;5068413;28;20045;-70
2023/08/17 09:02:01;;;;;;;2.28;2.08;;;18.70;99.90;;;;;;5070023;28;20028;-69
2023/08/17 09:04:28;;;;;;;4.50;3.03;;;18.80;99.90;;;;;;5069418;28;20375;-70
2023/08/17 09:06:55;;;;;;;3.08;2.05;;;18.80;99.90;;;;;;5070338;28;20025;-70
2023/08/17 09:09:21;;;;;;;2.25;2.08;;;18.80;99.90;;;;;;5070709;28;20111;-70
2023/08/17 09:11:46;;;;;;;5.65;2.95;;;18.80;99.90;;;;;;5068793;28;20032;-70
2023/08/17 09:14:12;;;;;;;4.97;3.00;;;18.90;99.90;;;;;;5069203;28;20081;-70
2023/08/17 09:16:38;;;;;;;6.43;4.97;;;19.00;99.90;;;;;;5068551;28;20483;-70
2023/08/17 09:19:05;;;;;;;6.30;4.80;;;19.00;99.90;;;;;;5070369;28;20020;-70
2023/08/17 09:21:32;;;;;;;17.80;14.55;;;19.00;99.90;;;;;;5068991;28;20441;-70
2023/08/17 09:23:58;;;;;;;7.25;6.55;;;18.90;99.90;;;;;;5065957;28;20036;-71
2023/08/17 09:26:24;;;;;;;16.42;14.43;;;18.90;99.90;;;;;;5069379;28;20021;-71
2023/08/17 09:28:56;;;;;;;6.43;5.82;;;18.90;99.90;;;;;;5067450;28;20044;-70
2023/08/17 09:31:23;;;;;;;5.18;4.68;;;18.90;99.90;;;;;;5071327;28;20024;-70
2023/08/17 09:33:52;;;;;;;5.28;3.95;;;19.00;99.90;;;;;;5073865;28;20021;-70
2023/08/17 09:36:22;;;;;;;13.13;9.73;;;19.00;99.90;;;;;;5071107;28;20067;-70
2023/08/17 09:38:50;;;;;;;20.45;14.20;;;18.90;99.90;;;;;;5069656;28;20032;-70
2023/08/17 09:41:16;;;;;;;94.22;59.55;;;18.90;99.90;;;;;;5070187;28;20040;-70
2023/08/17 09:43:42;;;;;;;24.60;15.40;;;18.90;99.90;;;;;;5067854;28;20453;-70
2023/08/17 09:46:09;;;;;;;64.45;45.05;;;18.90;99.90;;;;;;5071924;28;20103;-70
2023/08/17 09:48:35;;;;;;;14.50;9.98;;;18.90;99.90;;;;;;5070315;28;20066;-70
2023/08/17 09:51:02;;;;;;;2.55;2.35;;;18.80;99.90;;;;;;5075139;28;20035;-70
2023/08/17 09:53:27;;;;;;;3.88;3.58;;;18.80;99.90;;;;;;5071052;28;20032;-70
2023/08/17 09:55:55;;;;;;;4.72;3.42;;;18.70;99.90;;;;;;5074838;28;20021;-70
2023/08/17 09:58:20;;;;;;;3.78;2.70;;;18.60;99.90;;;;;;5070887;28;20036;-70
2023/08/17 10:00:49;;;;;;;3.47;3.17;;;18.50;99.90;;;;;;5072361;28;20028;-70
2023/08/17 10:03:15;;;;;;;3.97;3.42;;;18.50;99.90;;;;;;5070978;28;20039;-70
2023/08/17 10:05:43;;;;;;;6.88;3.70;;;18.40;99.90;;;;;;5070049;28;20028;-70
2023/08/17 10:08:10;;;;;;;18.70;6.22;;;18.40;99.90;;;;;;5072494;28;20406;-70
2023/08/17 10:10:40;;;;;;;8.48;6.45;;;18.40;99.90;;;;;;5070908;28;21625;-70
2023/08/17 10:13:10;;;;;;;8.98;7.63;;;18.40;99.90;;;;;;5071270;28;20029;-70
2023/08/17 10:16:23;;;;;;;10.82;8.63;;;18.40;99.90;;;;;;5077784;28;20498;-69
2023/08/17 10:19:17;;;;;;;21.17;15.77;;;18.40;99.90;;;;;;5063388;28;20071;-69
2023/08/17 10:22:00;;;;;;;13.82;10.10;;;18.30;99.90;;;;;;5073225;28;20107;-69
2023/08/17 10:24:26;;;;;;;14.40;10.27;;;18.20;99.90;;;;;;5068436;28;20151;-69
2023/08/17 10:26:52;;;;;;;14.85;9.82;;;18.20;99.90;;;;;;5068540;28;20055;-69
2023/08/17 10:29:20;;;;;;;14.32;9.98;;;18.10;99.90;;;;;;5073558;28;20036;-69
2023/08/17 10:31:46;;;;;;;13.32;10.00;;;18.20;99.90;;;;;;5071803;28;20056;-69
2023/08/17 10:34:12;;;;;;;23.42;15.60;;;18.20;99.90;;;;;;5070063;28;20033;-69
2023/08/17 10:36:39;;;;;;;23.45;18.10;;;18.10;99.90;;;;;;5071276;28;20032;-69
2023/08/17 10:39:26;;;;;;;24.00;17.35;;;18.00;99.90;;;;;;5071512;28;20119;-69
2023/08/17 10:41:52;;;;;;;58.72;40.83;;;18.00;99.90;;;;;;5070184;28;20060;-69
2023/08/17 10:44:37;;;;;;;25.52;15.48;;;17.90;99.90;;;;;;5070527;28;20040;-69
2023/08/17 10:47:23;;;;;;;14.88;11.77;;;17.90;99.90;;;;;;5074716;28;20028;-69
2023/08/17 10:49:56;;;;;;;20.15;12.45;;;17.90;99.90;;;;;;5063769;28;20031;-69
2023/08/17 10:52:32;;;;;;;29.27;17.55;;;17.90;99.90;;;;;;5069266;28;20418;-69
2023/08/17 10:55:06;;;;;;;26.48;14.52;;;17.80;99.90;;;;;;5067679;28;20024;-74
2023/08/17 10:57:39;;;;;;;14.95;9.95;;;17.80;99.90;;;;;;5069653;28;20263;-69
2023/08/17 11:00:24;;;;;;;13.65;10.15;;;17.90;99.90;;;;;;5072345;28;20033;-70
2023/08/17 11:03:09;;;;;;;24.55;10.63;;;17.80;99.90;;;;;;5069912;28;20085;-70
2023/08/17 11:05:53;;;;;;;18.43;11.03;;;17.80;99.90;;;;;;5071601;28;20032;-70
2023/08/17 11:08:23;;;;;;;16.92;10.00;;;17.80;99.90;;;;;;5071322;28;20093;-70
2023/08/17 11:11:07;;;;;;;16.13;10.55;;;17.90;99.90;;;;;;5060904;28;20394;-70
2023/08/17 11:13:38;;;;;;;14.70;9.45;;;18.00;99.90;;;;;;5070431;28;20036;-70
2023/08/17 11:16:05;;;;;;;14.05;8.30;;;18.00;99.90;;;;;;5071703;28;20047;-69
2023/08/17 11:18:34;;;;;;;16.30;11.38;;;18.00;99.90;;;;;;5071681;28;20036;-69
2023/08/17 11:21:04;;;;;;;19.20;13.57;;;18.00;99.90;;;;;;5065408;28;20127;-69
2023/08/17 11:23:31;;;;;;;19.75;13.38;;;18.00;99.90;;;;;;5066636;28;20028;-69
2023/08/17 11:25:57;;;;;;;22.38;15.50;;;18.20;99.90;;;;;;5070099;28;20093;-69
2023/08/17 11:28:23;;;;;;;20.63;13.65;;;18.30;99.90;;;;;;5089022;28;20032;-69
2023/08/17 11:31:03;;;;;;;36.55;21.48;;;18.40;99.90;;;;;;5070165;28;20032;-69
2023/08/17 11:33:30;;;;;;;27.73;16.02;;;18.40;99.90;;;;;;5068783;28;20028;-69
2023/08/17 11:38:30;;;;;;;32.05;20.05;;;18.50;99.90;;;;;;5039344;28;20052;-80
2023/08/17 11:40:57;;;;;;;20.83;13.40;;;18.50;99.90;;;;;;5041441;28;20430;-80
2023/08/17 11:43:23;;;;;;;28.58;12.65;;;18.40;99.90;;;;;;5033295;28;20478;-80
2023/08/17 11:45:48;;;;;;;19.20;11.02;;;18.30;99.90;;;;;;5036916;28;20033;-79
2023/08/17 11:48:16;;;;;;;22.88;12.73;;;18.30;99.90;;;;;;5031724;28;20026;-78
2023/08/17 11:50:42;;;;;;;15.20;10.07;;;18.20;99.90;;;;;;5036597;28;20022;-81
2023/08/17 11:53:08;;;;;;;18.65;10.88;;;18.30;99.90;;;;;;5031972;28;20018;-79
2023/08/17 11:55:33;;;;;;;18.00;10.70;;;18.30;99.90;;;;;;5028459;28;20053;-81
2023/08/17 11:57:59;;;;;;;15.82;10.27;;;18.30;99.90;;;;;;5031767;28;20565;-80
2023/08/17 12:00:25;;;;;;;20.10;13.32;;;18.40;99.90;;;;;;5022710;28;20030;-81
2023/08/17 12:02:52;;;;;;;18.90;12.13;;;18.40;99.90;;;;;;5035571;28;20032;-81
2023/08/17 12:05:24;;;;;;;28.63;17.33;;;18.50;99.90;;;;;;5028984;28;20037;-82
2023/08/17 12:07:52;;;;;;;17.80;12.75;;;18.50;99.90;;;;;;5032780;28;20041;-73
2023/08/17 12:10:19;;;;;;;16.35;10.55;;;18.50;99.90;;;;;;5028084;28;20029;-73
2023/08/17 12:12:46;;;;;;;28.52;19.95;;;18.60;99.90;;;;;;5026653;28;20025;-73
2023/08/17 12:15:12;;;;;;;34.40;20.13;;;18.60;99.90;;;;;;5025520;28;20182;-73
2023/08/17 12:17:45;;;;;;;23.83;17.15;;;18.60;99.90;;;;;;5029358;28;20132;-74
2023/08/17 12:20:16;;;;;;;20.98;13.18;;;18.60;99.90;;;;;;5028136;28;20491;-73
2023/08/17 12:22:41;;;;;;;26.63;13.45;;;18.60;99.90;;;;;;5033836;28;20033;-74
2023/08/17 12:25:08;;;;;;;19.60;10.27;;;18.70;99.90;;;;;;5025507;28;20587;-73
2023/08/17 12:27:34;;;;;;;26.42;14.32;;;18.80;99.90;;;;;;5023972;28;20055;-73
2023/08/17 12:29:59;;;;;;;23.20;14.73;;;18.80;99.90;;;;;;5020753;28;20072;-73
2023/08/17 12:32:25;;;;;;;30.45;20.33;;;18.80;99.90;;;;;;5032709;28;20066;-73
2023/08/17 12:34:50;;;;;;;19.42;11.50;;;18.80;99.90;;;;;;5027803;28;20112;-73
2023/08/17 12:37:20;;;;;;;15.10;10.40;;;18.80;99.90;;;;;;5037700;28;20110;-73
2023/08/17 12:39:47;;;;;;;15.90;10.18;;;18.90;99.90;;;;;;5048951;28;20025;-74
2023/08/17 12:42:14;;;;;;;30.92;15.23;;;18.80;99.90;;;;;;5048443;28;20102;-74
2023/08/17 12:44:40;;;;;;;46.78;26.05;;;18.80;99.90;;;;;;5041160;28;20028;-74